sensor_id;sensor_type;location;lat;lon;timestamp;P1;durP1;ratioP1;P2;durP2;ratioP2
17618;SDS011;8928;51.678;6.074;2023-03-13T00:01:12;23.33;;;3.77;;
17618;SDS011;8928;51.678;6.074;2023-03-13T00:04:00;31.57;;;4.50;;
17618;SDS011;8928;51.678;6.074;2023-03-13T00:06:48;27.40;;;4.07;;
17618;SDS011;8928;51.678;6.074;2023-03-13T00:09:35;31.73;;;4.10;;
17618;SDS011;8928;51.678;6.074;2023-03-13T00:12:22;26.27;;;4.30;;
17618;SDS011;8928;51.678;6.074;2023-03-13T00:15:09;28.33;;;3.90;;
17618;SDS011;8928;51.678;6.074;2023-03-13T00:17:58;23.77;;;4.03;;
17618;SDS011;8928;51.678;6.074;2023-03-13T00:20:45;31.73;;;4.40;;
17618;SDS011;8928;51.678;6.074;2023-03-13T00:23:33;28.37;;;3.80;;
17618;SDS011;8928;51.678;6.074;2023-03-13T00:26:22;24.90;;;3.97;;
17618;SDS011;8928;51.678;6.074;2023-03-13T00:29:10;28.87;;;4.10;;
17618;SDS011;8928;51.678;6.074;2023-03-13T00:31:57;24.70;;;3.90;;
17618;SDS011;8928;51.678;6.074;2023-03-13T00:34:46;27.87;;;3.83;;
17618;SDS011;8928;51.678;6.074;2023-03-13T00:37:33;26.00;;;3.80;;
17618;SDS011;8928;51.678;6.074;2023-03-13T00:40:20;28.33;;;3.97;;
17618;SDS011;8928;51.678;6.074;2023-03-13T00:43:07;27.17;;;3.77;;
17618;SDS011;8928;51.678;6.074;2023-03-13T00:45:54;24.80;;;3.77;;
17618;SDS011;8928;51.678;6.074;2023-03-13T00:48:41;26.33;;;4.33;;
17618;SDS011;8928;51.678;6.074;2023-03-13T00:51:29;23.97;;;3.80;;
17618;SDS011;8928;51.678;6.074;2023-03-13T00:54:17;21.20;;;3.63;;
17618;SDS011;8928;51.678;6.074;2023-03-13T00:57:04;22.93;;;3.80;;
17618;SDS011;8928;51.678;6.074;2023-03-13T00:59:51;26.50;;;3.60;;
17618;SDS011;8928;51.678;6.074;2023-03-13T01:02:40;23.07;;;3.60;;
17618;SDS011;8928;51.678;6.074;2023-03-13T01:05:27;29.23;;;3.57;;
17618;SDS011;8928;51.678;6.074;2023-03-13T01:08:15;27.07;;;4.00;;
17618;SDS011;8928;51.678;6.074;2023-03-13T01:11:03;33.17;;;4.23;;
17618;SDS011;8928;51.678;6.074;2023-03-13T01:13:52;27.43;;;3.73;;
17618;SDS011;8928;51.678;6.074;2023-03-13T01:16:40;27.40;;;4.17;;
17618;SDS011;8928;51.678;6.074;2023-03-13T01:19:27;33.80;;;3.40;;
17618;SDS011;8928;51.678;6.074;2023-03-13T01:22:14;27.23;;;3.83;;
17618;SDS011;8928;51.678;6.074;2023-03-13T01:25:03;20.60;;;3.83;;
17618;SDS011;8928;51.678;6.074;2023-03-13T01:27:51;28.73;;;3.90;;
17618;SDS011;8928;51.678;6.074;2023-03-13T01:30:38;35.77;;;4.00;;
17618;SDS011;8928;51.678;6.074;2023-03-13T01:33:25;31.60;;;4.20;;
17618;SDS011;8928;51.678;6.074;2023-03-13T01:36:12;35.93;;;5.00;;
17618;SDS011;8928;51.678;6.074;2023-03-13T01:38:59;28.83;;;4.40;;
17618;SDS011;8928;51.678;6.074;2023-03-13T01:41:48;29.20;;;4.10;;
17618;SDS011;8928;51.678;6.074;2023-03-13T01:44:48;33.33;;;4.40;;
17618;SDS011;8928;51.678;6.074;2023-03-13T01:47:36;32.50;;;4.23;;
17618;SDS011;8928;51.678;6.074;2023-03-13T01:50:23;28.57;;;4.50;;
17618;SDS011;8928;51.678;6.074;2023-03-13T01:53:10;31.93;;;4.93;;
17618;SDS011;8928;51.678;6.074;2023-03-13T01:55:58;30.33;;;4.50;;
17618;SDS011;8928;51.678;6.074;2023-03-13T01:58:48;36.07;;;4.70;;
17618;SDS011;8928;51.678;6.074;2023-03-13T02:01:37;26.73;;;4.07;;
17618;SDS011;8928;51.678;6.074;2023-03-13T02:04:25;24.47;;;4.27;;
17618;SDS011;8928;51.678;6.074;2023-03-13T02:07:16;25.10;;;4.77;;
17618;SDS011;8928;51.678;6.074;2023-03-13T02:10:07;27.90;;;4.20;;
17618;SDS011;8928;51.678;6.074;2023-03-13T02:12:55;24.00;;;4.17;;
17618;SDS011;8928;51.678;6.074;2023-03-13T02:15:45;28.10;;;4.30;;
17618;SDS011;8928;51.678;6.074;2023-03-13T02:18:34;19.63;;;3.90;;
17618;SDS011;8928;51.678;6.074;2023-03-13T02:24:31;29.13;;;4.23;;
17618;SDS011;8928;51.678;6.074;2023-03-13T02:27:24;20.50;;;4.13;;
17618;SDS011;8928;51.678;6.074;2023-03-13T02:30:12;22.73;;;4.13;;
17618;SDS011;8928;51.678;6.074;2023-03-13T02:33:01;22.40;;;3.90;;
17618;SDS011;8928;51.678;6.074;2023-03-13T02:35:48;24.50;;;4.27;;
17618;SDS011;8928;51.678;6.074;2023-03-13T02:38:37;22.53;;;4.47;;
17618;SDS011;8928;51.678;6.074;2023-03-13T02:41:28;19.60;;;3.80;;
17618;SDS011;8928;51.678;6.074;2023-03-13T02:44:17;18.20;;;4.03;;
17618;SDS011;8928;51.678;6.074;2023-03-13T02:47:04;21.53;;;4.47;;
17618;SDS011;8928;51.678;6.074;2023-03-13T02:49:54;15.40;;;4.20;;
17618;SDS011;8928;51.678;6.074;2023-03-13T02:52:41;16.53;;;4.30;;
17618;SDS011;8928;51.678;6.074;2023-03-13T02:55:31;20.57;;;4.30;;
17618;SDS011;8928;51.678;6.074;2023-03-13T02:58:22;17.90;;;4.53;;
17618;SDS011;8928;51.678;6.074;2023-03-13T03:01:11;14.07;;;4.20;;
17618;SDS011;8928;51.678;6.074;2023-03-13T03:03:58;22.30;;;4.87;;
17618;SDS011;8928;51.678;6.074;2023-03-13T03:06:45;17.63;;;5.20;;
17618;SDS011;8928;51.678;6.074;2023-03-13T03:09:32;20.57;;;5.27;;
17618;SDS011;8928;51.678;6.074;2023-03-13T03:12:19;16.97;;;5.53;;
17618;SDS011;8928;51.678;6.074;2023-03-13T03:15:06;17.47;;;5.93;;
17618;SDS011;8928;51.678;6.074;2023-03-13T03:17:55;20.20;;;5.90;;
17618;SDS011;8928;51.678;6.074;2023-03-13T03:20:42;18.47;;;6.07;;
17618;SDS011;8928;51.678;6.074;2023-03-13T03:23:29;19.03;;;6.10;;
17618;SDS011;8928;51.678;6.074;2023-03-13T03:26:17;14.73;;;6.30;;
17618;SDS011;8928;51.678;6.074;2023-03-13T03:29:04;16.17;;;6.47;;
17618;SDS011;8928;51.678;6.074;2023-03-13T03:31:52;21.63;;;6.70;;
17618;SDS011;8928;51.678;6.074;2023-03-13T03:34:41;16.30;;;6.57;;
17618;SDS011;8928;51.678;6.074;2023-03-13T03:37:28;20.10;;;6.90;;
17618;SDS011;8928;51.678;6.074;2023-03-13T03:40:15;12.80;;;6.57;;
17618;SDS011;8928;51.678;6.074;2023-03-13T03:43:02;16.90;;;6.53;;
17618;SDS011;8928;51.678;6.074;2023-03-13T03:45:49;17.63;;;6.57;;
17618;SDS011;8928;51.678;6.074;2023-03-13T03:48:36;15.47;;;6.60;;
17618;SDS011;8928;51.678;6.074;2023-03-13T03:51:24;16.40;;;6.57;;
17618;SDS011;8928;51.678;6.074;2023-03-13T03:54:12;15.20;;;6.73;;
17618;SDS011;8928;51.678;6.074;2023-03-13T03:56:59;14.50;;;6.70;;
17618;SDS011;8928;51.678;6.074;2023-03-13T03:59:46;12.60;;;6.50;;
17618;SDS011;8928;51.678;6.074;2023-03-13T04:02:33;17.20;;;6.23;;
17618;SDS011;8928;51.678;6.074;2023-03-13T04:05:20;14.60;;;6.43;;
17618;SDS011;8928;51.678;6.074;2023-03-13T04:08:10;16.33;;;6.43;;
17618;SDS011;8928;51.678;6.074;2023-03-13T04:10:58;14.53;;;6.37;;
17618;SDS011;8928;51.678;6.074;2023-03-13T04:13:46;13.23;;;6.27;;
17618;SDS011;8928;51.678;6.074;2023-03-13T04:16:33;13.70;;;6.57;;
17618;SDS011;8928;51.678;6.074;2023-03-13T04:19:20;11.50;;;6.20;;
17618;SDS011;8928;51.678;6.074;2023-03-13T04:22:07;13.47;;;6.43;;
17618;SDS011;8928;51.678;6.074;2023-03-13T04:24:55;11.87;;;6.53;;
17618;SDS011;8928;51.678;6.074;2023-03-13T04:27:42;13.53;;;6.10;;
17618;SDS011;8928;51.678;6.074;2023-03-13T04:30:29;13.80;;;6.97;;
17618;SDS011;8928;51.678;6.074;2023-03-13T04:33:16;13.60;;;6.83;;
17618;SDS011;8928;51.678;6.074;2023-03-13T04:36:04;15.40;;;6.63;;
17618;SDS011;8928;51.678;6.074;2023-03-13T04:38:51;17.07;;;7.97;;
17618;SDS011;8928;51.678;6.074;2023-03-13T04:41:40;15.70;;;7.53;;
17618;SDS011;8928;51.678;6.074;2023-03-13T04:44:27;15.33;;;7.77;;
17618;SDS011;8928;51.678;6.074;2023-03-13T04:47:14;17.43;;;8.23;;
17618;SDS011;8928;51.678;6.074;2023-03-13T04:50:01;16.43;;;8.50;;
17618;SDS011;8928;51.678;6.074;2023-03-13T04:52:48;15.30;;;8.27;;
17618;SDS011;8928;51.678;6.074;2023-03-13T04:55:35;20.80;;;9.10;;
17618;SDS011;8928;51.678;6.074;2023-03-13T04:58:23;16.17;;;8.37;;
17618;SDS011;8928;51.678;6.074;2023-03-13T05:01:10;15.80;;;8.20;;
17618;SDS011;8928;51.678;6.074;2023-03-13T05:03:57;19.00;;;8.90;;
17618;SDS011;8928;51.678;6.074;2023-03-13T05:06:44;15.63;;;8.13;;
17618;SDS011;8928;51.678;6.074;2023-03-13T05:09:31;14.33;;;8.33;;
17618;SDS011;8928;51.678;6.074;2023-03-13T05:12:18;15.47;;;8.40;;
17618;SDS011;8928;51.678;6.074;2023-03-13T05:15:07;16.97;;;8.37;;
17618;SDS011;8928;51.678;6.074;2023-03-13T05:17:54;16.40;;;8.00;;
17618;SDS011;8928;51.678;6.074;2023-03-13T05:20:41;19.27;;;8.70;;
17618;SDS011;8928;51.678;6.074;2023-03-13T05:23:28;18.37;;;8.77;;
17618;SDS011;8928;51.678;6.074;2023-03-13T05:26:16;16.90;;;8.63;;
17618;SDS011;8928;51.678;6.074;2023-03-13T05:29:03;16.03;;;8.10;;
17618;SDS011;8928;51.678;6.074;2023-03-13T05:31:51;15.67;;;8.07;;
17618;SDS011;8928;51.678;6.074;2023-03-13T05:34:38;15.67;;;7.53;;
17618;SDS011;8928;51.678;6.074;2023-03-13T05:37:25;12.73;;;7.20;;
17618;SDS011;8928;51.678;6.074;2023-03-13T05:40:12;14.23;;;7.53;;
17618;SDS011;8928;51.678;6.074;2023-03-13T05:43:00;15.63;;;7.23;;
17618;SDS011;8928;51.678;6.074;2023-03-13T05:45:47;15.10;;;7.10;;
17618;SDS011;8928;51.678;6.074;2023-03-13T05:48:35;16.77;;;6.47;;
17618;SDS011;8928;51.678;6.074;2023-03-13T05:51:22;14.97;;;6.10;;
17618;SDS011;8928;51.678;6.074;2023-03-13T05:54:09;17.40;;;6.33;;
17618;SDS011;8928;51.678;6.074;2023-03-13T05:56:56;14.83;;;5.87;;
17618;SDS011;8928;51.678;6.074;2023-03-13T05:59:43;15.23;;;5.60;;
17618;SDS011;8928;51.678;6.074;2023-03-13T06:02:30;10.47;;;5.40;;
17618;SDS011;8928;51.678;6.074;2023-03-13T06:05:18;11.27;;;5.53;;
17618;SDS011;8928;51.678;6.074;2023-03-13T06:08:05;9.97;;;4.83;;
17618;SDS011;8928;51.678;6.074;2023-03-13T06:10:52;11.47;;;4.67;;
17618;SDS011;8928;51.678;6.074;2023-03-13T06:13:39;11.00;;;5.07;;
17618;SDS011;8928;51.678;6.074;2023-03-13T06:16:26;12.33;;;4.57;;
17618;SDS011;8928;51.678;6.074;2023-03-13T06:19:13;9.40;;;4.40;;
17618;SDS011;8928;51.678;6.074;2023-03-13T06:22:02;12.50;;;4.20;;
17618;SDS011;8928;51.678;6.074;2023-03-13T06:24:49;12.13;;;4.07;;
17618;SDS011;8928;51.678;6.074;2023-03-13T06:27:36;13.87;;;3.80;;
17618;SDS011;8928;51.678;6.074;2023-03-13T06:30:23;10.40;;;3.87;;
17618;SDS011;8928;51.678;6.074;2023-03-13T06:33:10;11.17;;;4.17;;
17618;SDS011;8928;51.678;6.074;2023-03-13T06:35:58;10.07;;;3.77;;
17618;SDS011;8928;51.678;6.074;2023-03-13T06:38:47;11.20;;;3.70;;
17618;SDS011;8928;51.678;6.074;2023-03-13T06:41:35;9.20;;;3.63;;
17618;SDS011;8928;51.678;6.074;2023-03-13T06:44:22;12.30;;;3.63;;
17618;SDS011;8928;51.678;6.074;2023-03-13T06:47:09;8.50;;;3.50;;
17618;SDS011;8928;51.678;6.074;2023-03-13T06:49:56;9.57;;;3.30;;
17618;SDS011;8928;51.678;6.074;2023-03-13T06:52:44;7.87;;;3.13;;
17618;SDS011;8928;51.678;6.074;2023-03-13T06:55:34;8.03;;;3.00;;
17618;SDS011;8928;51.678;6.074;2023-03-13T06:58:21;8.47;;;3.23;;
17618;SDS011;8928;51.678;6.074;2023-03-13T07:01:08;6.47;;;2.83;;
17618;SDS011;8928;51.678;6.074;2023-03-13T07:03:57;8.50;;;2.80;;
17618;SDS011;8928;51.678;6.074;2023-03-13T07:06:44;9.43;;;2.77;;
17618;SDS011;8928;51.678;6.074;2023-03-13T07:09:31;10.93;;;3.00;;
17618;SDS011;8928;51.678;6.074;2023-03-13T07:12:19;9.57;;;2.97;;
17618;SDS011;8928;51.678;6.074;2023-03-13T07:15:06;9.13;;;2.93;;
17618;SDS011;8928;51.678;6.074;2023-03-13T07:17:55;8.80;;;2.93;;
17618;SDS011;8928;51.678;6.074;2023-03-13T07:20:43;11.43;;;2.90;;
17618;SDS011;8928;51.678;6.074;2023-03-13T07:23:30;9.10;;;2.73;;
17618;SDS011;8928;51.678;6.074;2023-03-13T07:26:18;7.60;;;2.80;;
17618;SDS011;8928;51.678;6.074;2023-03-13T07:29:06;10.63;;;2.73;;
17618;SDS011;8928;51.678;6.074;2023-03-13T07:31:53;10.13;;;2.90;;
17618;SDS011;8928;51.678;6.074;2023-03-13T07:34:40;8.17;;;2.63;;
17618;SDS011;8928;51.678;6.074;2023-03-13T07:37:28;5.73;;;2.47;;
17618;SDS011;8928;51.678;6.074;2023-03-13T07:40:16;10.93;;;2.80;;
17618;SDS011;8928;51.678;6.074;2023-03-13T07:43:03;12.77;;;2.83;;
17618;SDS011;8928;51.678;6.074;2023-03-13T07:45:54;7.80;;;2.60;;
17618;SDS011;8928;51.678;6.074;2023-03-13T07:48:43;8.70;;;2.60;;
17618;SDS011;8928;51.678;6.074;2023-03-13T07:51:30;12.00;;;2.30;;
17618;SDS011;8928;51.678;6.074;2023-03-13T07:54:17;9.53;;;2.73;;
17618;SDS011;8928;51.678;6.074;2023-03-13T07:57:04;7.83;;;2.33;;
17618;SDS011;8928;51.678;6.074;2023-03-13T07:59:51;9.90;;;2.77;;
17618;SDS011;8928;51.678;6.074;2023-03-13T08:02:40;10.57;;;2.70;;
17618;SDS011;8928;51.678;6.074;2023-03-13T08:05:27;9.37;;;2.60;;
17618;SDS011;8928;51.678;6.074;2023-03-13T08:08:14;10.60;;;2.30;;
17618;SDS011;8928;51.678;6.074;2023-03-13T08:11:01;9.13;;;2.70;;
17618;SDS011;8928;51.678;6.074;2023-03-13T08:13:50;10.20;;;2.50;;
17618;SDS011;8928;51.678;6.074;2023-03-13T08:16:38;12.27;;;2.70;;
17618;SDS011;8928;51.678;6.074;2023-03-13T08:19:26;9.80;;;2.50;;
17618;SDS011;8928;51.678;6.074;2023-03-13T08:22:13;9.73;;;2.50;;
17618;SDS011;8928;51.678;6.074;2023-03-13T08:25:00;9.57;;;2.50;;
17618;SDS011;8928;51.678;6.074;2023-03-13T08:27:47;6.43;;;2.30;;
17618;SDS011;8928;51.678;6.074;2023-03-13T08:30:34;10.57;;;2.40;;
17618;SDS011;8928;51.678;6.074;2023-03-13T08:33:21;13.20;;;2.83;;
17618;SDS011;8928;51.678;6.074;2023-03-13T08:36:14;10.40;;;2.50;;
17618;SDS011;8928;51.678;6.074;2023-03-13T08:39:03;9.10;;;2.50;;
17618;SDS011;8928;51.678;6.074;2023-03-13T08:41:54;8.03;;;2.50;;
17618;SDS011;8928;51.678;6.074;2023-03-13T08:44:42;10.40;;;2.57;;
17618;SDS011;8928;51.678;6.074;2023-03-13T08:47:29;7.10;;;2.00;;
17618;SDS011;8928;51.678;6.074;2023-03-13T08:50:16;12.00;;;2.40;;
17618;SDS011;8928;51.678;6.074;2023-03-13T08:53:04;10.53;;;2.57;;
17618;SDS011;8928;51.678;6.074;2023-03-13T08:55:51;8.83;;;2.30;;
17618;SDS011;8928;51.678;6.074;2023-03-13T08:58:39;6.37;;;2.27;;
17618;SDS011;8928;51.678;6.074;2023-03-13T09:01:26;10.17;;;2.33;;
17618;SDS011;8928;51.678;6.074;2023-03-13T09:04:14;8.93;;;2.40;;
17618;SDS011;8928;51.678;6.074;2023-03-13T09:07:01;10.30;;;2.00;;
17618;SDS011;8928;51.678;6.074;2023-03-13T09:09:50;10.93;;;2.27;;
17618;SDS011;8928;51.678;6.074;2023-03-13T09:12:37;7.70;;;1.90;;
17618;SDS011;8928;51.678;6.074;2023-03-13T09:15:25;10.30;;;2.17;;
17618;SDS011;8928;51.678;6.074;2023-03-13T09:18:12;7.23;;;2.00;;
17618;SDS011;8928;51.678;6.074;2023-03-13T09:20:59;9.27;;;1.83;;
17618;SDS011;8928;51.678;6.074;2023-03-13T09:23:46;9.27;;;1.70;;
17618;SDS011;8928;51.678;6.074;2023-03-13T09:26:35;4.53;;;1.67;;
17618;SDS011;8928;51.678;6.074;2023-03-13T09:29:22;6.50;;;1.50;;
17618;SDS011;8928;51.678;6.074;2023-03-13T09:32:09;6.80;;;1.70;;
17618;SDS011;8928;51.678;6.074;2023-03-13T09:34:56;7.73;;;1.50;;
17618;SDS011;8928;51.678;6.074;2023-03-13T09:37:43;5.47;;;1.60;;
17618;SDS011;8928;51.678;6.074;2023-03-13T09:40:30;6.90;;;1.67;;
17618;SDS011;8928;51.678;6.074;2023-03-13T09:43:28;6.40;;;1.70;;
17618;SDS011;8928;51.678;6.074;2023-03-13T09:46:24;6.40;;;2.00;;
17618;SDS011;8928;51.678;6.074;2023-03-13T09:49:22;6.00;;;2.00;;
17618;SDS011;8928;51.678;6.074;2023-03-13T09:52:16;4.93;;;1.67;;
17618;SDS011;8928;51.678;6.074;2023-03-13T09:55:09;7.60;;;1.93;;
17618;SDS011;8928;51.678;6.074;2023-03-13T09:58:01;6.20;;;1.70;;
17618;SDS011;8928;51.678;6.074;2023-03-13T10:00:59;8.27;;;1.90;;
17618;SDS011;8928;51.678;6.074;2023-03-13T10:03:52;7.63;;;1.90;;
17618;SDS011;8928;51.678;6.074;2023-03-13T10:06:45;11.77;;;1.90;;
17618;SDS011;8928;51.678;6.074;2023-03-13T10:09:33;6.63;;;1.80;;
17618;SDS011;8928;51.678;6.074;2023-03-13T10:12:22;8.17;;;1.87;;
17618;SDS011;8928;51.678;6.074;2023-03-13T10:15:19;5.97;;;1.67;;
17618;SDS011;8928;51.678;6.074;2023-03-13T10:18:20;5.27;;;1.77;;
17618;SDS011;8928;51.678;6.074;2023-03-13T10:21:11;5.23;;;1.73;;
17618;SDS011;8928;51.678;6.074;2023-03-13T10:24:02;7.17;;;1.73;;
17618;SDS011;8928;51.678;6.074;2023-03-13T10:26:56;4.90;;;1.40;;
17618;SDS011;8928;51.678;6.074;2023-03-13T10:29:43;6.87;;;1.50;;
17618;SDS011;8928;51.678;6.074;2023-03-13T10:32:30;4.40;;;1.50;;
17618;SDS011;8928;51.678;6.074;2023-03-13T10:35:21;4.00;;;1.40;;
17618;SDS011;8928;51.678;6.074;2023-03-13T10:38:10;3.50;;;1.10;;
17618;SDS011;8928;51.678;6.074;2023-03-13T10:41:00;3.53;;;1.20;;
17618;SDS011;8928;51.678;6.074;2023-03-13T10:43:54;3.30;;;1.27;;
17618;SDS011;8928;51.678;6.074;2023-03-13T10:46:46;7.50;;;1.10;;
17618;SDS011;8928;51.678;6.074;2023-03-13T10:49:34;5.33;;;1.10;;
17618;SDS011;8928;51.678;6.074;2023-03-13T10:52:40;4.07;;;0.97;;
17618;SDS011;8928;51.678;6.074;2023-03-13T10:55:28;4.43;;;1.10;;
17618;SDS011;8928;51.678;6.074;2023-03-13T10:58:17;4.27;;;1.13;;
17618;SDS011;8928;51.678;6.074;2023-03-13T11:01:08;3.77;;;1.10;;
17618;SDS011;8928;51.678;6.074;2023-03-13T11:04:17;3.53;;;1.10;;
17618;SDS011;8928;51.678;6.074;2023-03-13T11:07:08;2.80;;;0.90;;
17618;SDS011;8928;51.678;6.074;2023-03-13T11:10:03;5.33;;;1.20;;
17618;SDS011;8928;51.678;6.074;2023-03-13T11:13:03;4.50;;;1.10;;
17618;SDS011;8928;51.678;6.074;2023-03-13T11:15:50;2.67;;;1.00;;
17618;SDS011;8928;51.678;6.074;2023-03-13T11:18:44;2.63;;;1.20;;
17618;SDS011;8928;51.678;6.074;2023-03-13T11:21:43;6.00;;;1.17;;
17618;SDS011;8928;51.678;6.074;2023-03-13T11:24:39;5.70;;;1.23;;
17618;SDS011;8928;51.678;6.074;2023-03-13T11:27:34;2.47;;;1.17;;
17618;SDS011;8928;51.678;6.074;2023-03-13T11:30:33;3.60;;;1.30;;
17618;SDS011;8928;51.678;6.074;2023-03-13T11:33:34;5.00;;;1.20;;
17618;SDS011;8928;51.678;6.074;2023-03-13T11:36:34;4.07;;;1.20;;
17618;SDS011;8928;51.678;6.074;2023-03-13T11:39:36;2.00;;;1.13;;
17618;SDS011;8928;51.678;6.074;2023-03-13T11:42:39;7.73;;;1.80;;
17618;SDS011;8928;51.678;6.074;2023-03-13T11:48:52;4.33;;;1.10;;
17618;SDS011;8928;51.678;6.074;2023-03-13T11:52:00;2.53;;;1.10;;
17618;SDS011;8928;51.678;6.074;2023-03-13T11:54:58;6.43;;;1.27;;
17618;SDS011;8928;51.678;6.074;2023-03-13T11:58:02;4.47;;;1.20;;
17618;SDS011;8928;51.678;6.074;2023-03-13T12:00:58;2.87;;;1.10;;
17618;SDS011;8928;51.678;6.074;2023-03-13T12:03:52;6.63;;;1.07;;
17618;SDS011;8928;51.678;6.074;2023-03-13T12:06:43;4.70;;;1.30;;
17618;SDS011;8928;51.678;6.074;2023-03-13T12:09:36;2.77;;;1.20;;
17618;SDS011;8928;51.678;6.074;2023-03-13T12:12:32;3.23;;;1.20;;
17618;SDS011;8928;51.678;6.074;2023-03-13T12:15:28;3.00;;;0.83;;
17618;SDS011;8928;51.678;6.074;2023-03-13T12:18:18;4.33;;;1.13;;
17618;SDS011;8928;51.678;6.074;2023-03-13T12:21:12;6.50;;;1.10;;
17618;SDS011;8928;51.678;6.074;2023-03-13T12:24:05;4.53;;;1.17;;
17618;SDS011;8928;51.678;6.074;2023-03-13T12:26:59;5.80;;;1.00;;
17618;SDS011;8928;51.678;6.074;2023-03-13T12:29:52;4.10;;;0.90;;
17618;SDS011;8928;51.678;6.074;2023-03-13T12:32:47;5.00;;;1.00;;
17618;SDS011;8928;51.678;6.074;2023-03-13T12:35:38;3.57;;;0.90;;
17618;SDS011;8928;51.678;6.074;2023-03-13T12:38:32;3.97;;;1.23;;
17618;SDS011;8928;51.678;6.074;2023-03-13T12:41:24;4.97;;;1.10;;
17618;SDS011;8928;51.678;6.074;2023-03-13T12:44:17;3.60;;;1.10;;
17618;SDS011;8928;51.678;6.074;2023-03-13T12:47:06;3.22;;;1.00;;
17618;SDS011;8928;51.678;6.074;2023-03-13T12:50:17;2.50;;;1.10;;
17618;SDS011;8928;51.678;6.074;2023-03-13T12:53:26;3.67;;;1.20;;
17618;SDS011;8928;51.678;6.074;2023-03-13T12:56:36;4.28;;;1.10;;
17618;SDS011;8928;51.678;6.074;2023-03-13T12:59:37;5.10;;;1.00;;
17618;SDS011;8928;51.678;6.074;2023-03-13T13:02:26;3.60;;;1.10;;
17618;SDS011;8928;51.678;6.074;2023-03-13T13:05:18;2.47;;;1.00;;
17618;SDS011;8928;51.678;6.074;2023-03-13T13:08:20;5.18;;;1.27;;
17618;SDS011;8928;51.678;6.074;2023-03-13T13:17:49;2.60;;;1.17;;
17618;SDS011;8928;51.678;6.074;2023-03-13T13:20:48;3.22;;;1.10;;
17618;SDS011;8928;51.678;6.074;2023-03-13T13:27:27;4.82;;;1.42;;
17618;SDS011;8928;51.678;6.074;2023-03-13T13:30:32;6.18;;;1.17;;
17618;SDS011;8928;51.678;6.074;2023-03-13T13:36:31;3.95;;;1.00;;
17618;SDS011;8928;51.678;6.074;2023-03-13T13:39:31;3.10;;;0.90;;
17618;SDS011;8928;51.678;6.074;2023-03-13T13:45:34;4.97;;;1.20;;
17618;SDS011;8928;51.678;6.074;2023-03-13T13:48:26;3.78;;;1.10;;
17618;SDS011;8928;51.678;6.074;2023-03-13T13:51:20;4.18;;;1.02;;
17618;SDS011;8928;51.678;6.074;2023-03-13T13:54:31;4.25;;;1.00;;
17618;SDS011;8928;51.678;6.074;2023-03-13T13:57:20;4.55;;;1.27;;
17618;SDS011;8928;51.678;6.074;2023-03-13T14:00:15;3.97;;;0.90;;
17618;SDS011;8928;51.678;6.074;2023-03-13T14:03:11;5.88;;;1.05;;
17618;SDS011;8928;51.678;6.074;2023-03-13T14:06:17;6.30;;;1.10;;
17618;SDS011;8928;51.678;6.074;2023-03-13T14:09:12;3.78;;;0.98;;
17618;SDS011;8928;51.678;6.074;2023-03-13T14:15:14;3.22;;;0.80;;
17618;SDS011;8928;51.678;6.074;2023-03-13T14:18:08;4.80;;;1.00;;
17618;SDS011;8928;51.678;6.074;2023-03-13T14:20:58;5.10;;;0.98;;
17618;SDS011;8928;51.678;6.074;2023-03-13T14:23:46;2.75;;;0.80;;
17618;SDS011;8928;51.678;6.074;2023-03-13T14:26:33;4.15;;;1.10;;
17618;SDS011;8928;51.678;6.074;2023-03-13T14:29:29;3.15;;;1.00;;
17618;SDS011;8928;51.678;6.074;2023-03-13T14:32:16;2.10;;;0.80;;
17618;SDS011;8928;51.678;6.074;2023-03-13T14:35:04;3.13;;;0.70;;
17618;SDS011;8928;51.678;6.074;2023-03-13T14:37:52;3.60;;;0.70;;
17618;SDS011;8928;51.678;6.074;2023-03-13T14:40:47;2.90;;;0.82;;
17618;SDS011;8928;51.678;6.074;2023-03-13T14:43:36;4.00;;;0.90;;
17618;SDS011;8928;51.678;6.074;2023-03-13T14:46:29;2.22;;;0.73;;
17618;SDS011;8928;51.678;6.074;2023-03-13T14:49:18;5.45;;;1.08;;
17618;SDS011;8928;51.678;6.074;2023-03-13T14:52:13;2.83;;;0.93;;
17618;SDS011;8928;51.678;6.074;2023-03-13T14:55:06;5.68;;;1.00;;
17618;SDS011;8928;51.678;6.074;2023-03-13T14:58:24;5.15;;;0.90;;
17618;SDS011;8928;51.678;6.074;2023-03-13T15:01:13;2.58;;;0.90;;
17618;SDS011;8928;51.678;6.074;2023-03-13T15:04:09;3.10;;;0.70;;
17618;SDS011;8928;51.678;6.074;2023-03-13T15:07:00;1.65;;;0.80;;
17618;SDS011;8928;51.678;6.074;2023-03-13T15:09:48;5.05;;;1.00;;
17618;SDS011;8928;51.678;6.074;2023-03-13T15:12:40;2.17;;;0.70;;
17618;SDS011;8928;51.678;6.074;2023-03-13T15:15:28;5.00;;;0.70;;
17618;SDS011;8928;51.678;6.074;2023-03-13T15:18:16;2.90;;;1.10;;
17618;SDS011;8928;51.678;6.074;2023-03-13T15:21:18;3.42;;;1.00;;
17618;SDS011;8928;51.678;6.074;2023-03-13T15:24:09;3.33;;;0.90;;
17618;SDS011;8928;51.678;6.074;2023-03-13T15:26:59;2.30;;;0.70;;
17618;SDS011;8928;51.678;6.074;2023-03-13T15:29:46;4.20;;;0.93;;
17618;SDS011;8928;51.678;6.074;2023-03-13T15:32:33;6.10;;;0.88;;
17618;SDS011;8928;51.678;6.074;2023-03-13T15:35:23;4.07;;;0.77;;
17618;SDS011;8928;51.678;6.074;2023-03-13T15:38:14;6.78;;;0.90;;
17618;SDS011;8928;51.678;6.074;2023-03-13T15:41:02;4.20;;;0.80;;
17618;SDS011;8928;51.678;6.074;2023-03-13T15:43:50;3.78;;;1.02;;
17618;SDS011;8928;51.678;6.074;2023-03-13T15:46:39;5.78;;;0.90;;
17618;SDS011;8928;51.678;6.074;2023-03-13T15:49:26;4.00;;;1.10;;
17618;SDS011;8928;51.678;6.074;2023-03-13T15:52:14;3.35;;;1.08;;
17618;SDS011;8928;51.678;6.074;2023-03-13T15:55:05;5.30;;;0.88;;
17618;SDS011;8928;51.678;6.074;2023-03-13T15:57:54;3.00;;;0.85;;
17618;SDS011;8928;51.678;6.074;2023-03-13T16:00:41;4.75;;;0.90;;
17618;SDS011;8928;51.678;6.074;2023-03-13T16:03:29;4.57;;;1.10;;
17618;SDS011;8928;51.678;6.074;2023-03-13T16:06:17;5.60;;;0.90;;
17618;SDS011;8928;51.678;6.074;2023-03-13T16:09:05;6.50;;;1.00;;
17618;SDS011;8928;51.678;6.074;2023-03-13T16:11:54;3.75;;;1.00;;
17618;SDS011;8928;51.678;6.074;2023-03-13T16:14:42;3.97;;;1.08;;
17618;SDS011;8928;51.678;6.074;2023-03-13T16:17:29;4.10;;;1.08;;
17618;SDS011;8928;51.678;6.074;2023-03-13T16:20:17;5.95;;;1.20;;
17618;SDS011;8928;51.678;6.074;2023-03-13T16:23:06;3.35;;;0.80;;
17618;SDS011;8928;51.678;6.074;2023-03-13T16:25:53;3.78;;;1.10;;
17618;SDS011;8928;51.678;6.074;2023-03-13T16:28:41;5.28;;;1.13;;
17618;SDS011;8928;51.678;6.074;2023-03-13T16:31:29;6.47;;;1.10;;
17618;SDS011;8928;51.678;6.074;2023-03-13T16:34:18;6.57;;;1.05;;
17618;SDS011;8928;51.678;6.074;2023-03-13T16:37:09;10.90;;;1.30;;
17618;SDS011;8928;51.678;6.074;2023-03-13T16:39:58;5.40;;;1.08;;
17618;SDS011;8928;51.678;6.074;2023-03-13T16:42:45;4.90;;;1.17;;
17618;SDS011;8928;51.678;6.074;2023-03-13T16:45:33;5.13;;;1.30;;
17618;SDS011;8928;51.678;6.074;2023-03-13T16:48:20;6.95;;;1.20;;
17618;SDS011;8928;51.678;6.074;2023-03-13T16:51:12;5.25;;;1.30;;
17618;SDS011;8928;51.678;6.074;2023-03-13T16:54:01;6.33;;;1.20;;
17618;SDS011;8928;51.678;6.074;2023-03-13T16:56:50;8.05;;;1.05;;
17618;SDS011;8928;51.678;6.074;2023-03-13T16:59:37;6.70;;;1.43;;
17618;SDS011;8928;51.678;6.074;2023-03-13T17:02:26;6.70;;;1.43;;
17618;SDS011;8928;51.678;6.074;2023-03-13T17:05:14;6.30;;;1.20;;
17618;SDS011;8928;51.678;6.074;2023-03-13T17:08:01;6.43;;;1.17;;
17618;SDS011;8928;51.678;6.074;2023-03-13T17:10:49;8.50;;;1.40;;
17618;SDS011;8928;51.678;6.074;2023-03-13T17:13:36;7.30;;;1.27;;
17618;SDS011;8928;51.678;6.074;2023-03-13T17:16:24;10.13;;;1.10;;
17618;SDS011;8928;51.678;6.074;2023-03-13T17:19:16;9.20;;;1.30;;
17618;SDS011;8928;51.678;6.074;2023-03-13T17:22:03;7.13;;;1.30;;
17618;SDS011;8928;51.678;6.074;2023-03-13T17:24:50;8.57;;;1.40;;
17618;SDS011;8928;51.678;6.074;2023-03-13T17:27:37;7.57;;;1.30;;
17618;SDS011;8928;51.678;6.074;2023-03-13T17:30:26;5.67;;;1.13;;
17618;SDS011;8928;51.678;6.074;2023-03-13T17:33:15;5.70;;;1.37;;
17618;SDS011;8928;51.678;6.074;2023-03-13T17:36:07;6.77;;;1.70;;
17618;SDS011;8928;51.678;6.074;2023-03-13T17:39:00;8.93;;;1.70;;